Airport Name : El Arish Intl

Other Name : El Arish Intl

ICAO : HEAR

IATA : AAC

FAA :

Latitude : 31.073333

Longitude : 33.835833

Country : Egypt

Local Date and Time : 25 Feb 2021 01:21

 

TAF (Terminal Aerodrome Forecast)

TAF HEAR 242300Z 2500/2606 VRB03KT 9999 SCT025 BECMG 2507/0509 29010KT BECMG 2518/2520 VRB03KT

 

METAR (METeorological Aerodrome Report)

To Charter a Jet Click here.